sensor_id;sensor_type;location;lat;lon;timestamp;temperature;humidity
64888;DHT22;51386;53.082;8.816;2023-04-01T00:00:01;13.20;90.70
64888;DHT22;51386;53.082;8.816;2023-04-01T00:02:28;13.20;90.70
64888;DHT22;51386;53.082;8.816;2023-04-01T00:04:55;13.20;90.70
64888;DHT22;51386;53.082;8.816;2023-04-01T00:07:22;13.20;90.70
64888;DHT22;51386;53.082;8.816;2023-04-01T00:09:51;13.30;90.80
64888;DHT22;51386;53.082;8.816;2023-04-01T00:12:18;13.30;90.80
64888;DHT22;51386;53.082;8.816;2023-04-01T00:14:45;13.30;90.80
64888;DHT22;51386;53.082;8.816;2023-04-01T00:17:12;13.30;90.70
64888;DHT22;51386;53.082;8.816;2023-04-01T00:19:39;13.30;90.70
64888;DHT22;51386;53.082;8.816;2023-04-01T00:22:06;13.30;90.70
64888;DHT22;51386;53.082;8.816;2023-04-01T00:24:33;13.30;90.70
64888;DHT22;51386;53.082;8.816;2023-04-01T00:27:01;13.30;90.70
64888;DHT22;51386;53.082;8.816;2023-04-01T00:29:28;13.20;90.70
64888;DHT22;51386;53.082;8.816;2023-04-01T00:31:57;13.20;90.80
64888;DHT22;51386;53.082;8.816;2023-04-01T00:34:24;13.20;90.80
64888;DHT22;51386;53.082;8.816;2023-04-01T00:36:51;13.20;90.90
64888;DHT22;51386;53.082;8.816;2023-04-01T00:39:19;13.20;91.00
64888;DHT22;51386;53.082;8.816;2023-04-01T00:41:47;13.10;91.00
64888;DHT22;51386;53.082;8.816;2023-04-01T00:44:19;13.20;91.00
64888;DHT22;51386;53.082;8.816;2023-04-01T00:46:47;13.10;91.10
64888;DHT22;51386;53.082;8.816;2023-04-01T00:49:17;13.10;91.00
64888;DHT22;51386;53.082;8.816;2023-04-01T00:51:49;13.10;91.00
64888;DHT22;51386;53.082;8.816;2023-04-01T00:54:19;13.10;91.10
64888;DHT22;51386;53.082;8.816;2023-04-01T00:56:51;13.10;91.00
64888;DHT22;51386;53.082;8.816;2023-04-01T00:59:27;13.10;91.10
64888;DHT22;51386;53.082;8.816;2023-04-01T01:01:57;13.20;91.10
64888;DHT22;51386;53.082;8.816;2023-04-01T01:04:25;13.20;91.10
64888;DHT22;51386;53.082;8.816;2023-04-01T01:07:00;13.20;91.00
64888;DHT22;51386;53.082;8.816;2023-04-01T01:09:45;13.20;91.00
64888;DHT22;51386;53.082;8.816;2023-04-01T01:12:24;13.30;91.00
64888;DHT22;51386;53.082;8.816;2023-04-01T01:15:04;13.30;90.90
64888;DHT22;51386;53.082;8.816;2023-04-01T01:17:50;13.30;90.90
64888;DHT22;51386;53.082;8.816;2023-04-01T01:20:52;13.30;90.90
64888;DHT22;51386;53.082;8.816;2023-04-01T01:27:03;13.30;90.80
64888;DHT22;51386;53.082;8.816;2023-04-01T01:29:57;13.30;90.70
64888;DHT22;51386;53.082;8.816;2023-04-01T01:32:45;13.40;90.70
64888;DHT22;51386;53.082;8.816;2023-04-01T01:35:27;13.30;90.60
64888;DHT22;51386;53.082;8.816;2023-04-01T01:38:01;13.30;90.60
64888;DHT22;51386;53.082;8.816;2023-04-01T01:40:33;13.30;90.60
64888;DHT22;51386;53.082;8.816;2023-04-01T01:43:05;13.30;90.60
64888;DHT22;51386;53.082;8.816;2023-04-01T01:45:39;13.30;90.60
64888;DHT22;51386;53.082;8.816;2023-04-01T01:48:11;13.30;90.60
64888;DHT22;51386;53.082;8.816;2023-04-01T01:50:41;13.30;90.60
64888;DHT22;51386;53.082;8.816;2023-04-01T01:53:12;13.30;90.60
64888;DHT22;51386;53.082;8.816;2023-04-01T01:55:42;13.20;90.70
64888;DHT22;51386;53.082;8.816;2023-04-01T01:58:15;13.20;90.70
64888;DHT22;51386;53.082;8.816;2023-04-01T02:00:49;13.20;90.90
64888;DHT22;51386;53.082;8.816;2023-04-01T02:03:20;13.20;90.80
64888;DHT22;51386;53.082;8.816;2023-04-01T02:05:53;13.20;90.90
64888;DHT22;51386;53.082;8.816;2023-04-01T02:08:25;13.20;91.20
64888;DHT22;51386;53.082;8.816;2023-04-01T02:10:57;13.20;91.00
64888;DHT22;51386;53.082;8.816;2023-04-01T02:13:30;13.20;91.00
64888;DHT22;51386;53.082;8.816;2023-04-01T02:16:06;13.20;91.00
64888;DHT22;51386;53.082;8.816;2023-04-01T02:18:39;13.20;91.00
64888;DHT22;51386;53.082;8.816;2023-04-01T02:21:12;13.20;90.90
64888;DHT22;51386;53.082;8.816;2023-04-01T02:23:40;13.20;91.00
64888;DHT22;51386;53.082;8.816;2023-04-01T02:26:09;13.20;91.00
64888;DHT22;51386;53.082;8.816;2023-04-01T02:28:40;13.20;91.00
64888;DHT22;51386;53.082;8.816;2023-04-01T02:31:10;13.20;90.90
64888;DHT22;51386;53.082;8.816;2023-04-01T02:33:39;13.20;91.00
64888;DHT22;51386;53.082;8.816;2023-04-01T02:36:12;13.20;91.00
64888;DHT22;51386;53.082;8.816;2023-04-01T02:38:41;13.20;90.90
64888;DHT22;51386;53.082;8.816;2023-04-01T02:41:09;13.20;91.00
64888;DHT22;51386;53.082;8.816;2023-04-01T02:43:36;13.20;90.90
64888;DHT22;51386;53.082;8.816;2023-04-01T02:46:03;13.20;90.90
64888;DHT22;51386;53.082;8.816;2023-04-01T02:48:30;13.20;91.00
64888;DHT22;51386;53.082;8.816;2023-04-01T02:50:57;13.20;90.90
64888;DHT22;51386;53.082;8.816;2023-04-01T02:53:25;13.20;90.90
64888;DHT22;51386;53.082;8.816;2023-04-01T02:55:52;13.20;90.90
64888;DHT22;51386;53.082;8.816;2023-04-01T02:58:19;13.20;90.90
64888;DHT22;51386;53.082;8.816;2023-04-01T03:00:46;13.20;90.80
64888;DHT22;51386;53.082;8.816;2023-04-01T03:03:13;13.20;90.90
64888;DHT22;51386;53.082;8.816;2023-04-01T03:05:40;13.20;90.90
64888;DHT22;51386;53.082;8.816;2023-04-01T03:08:08;13.10;90.80
64888;DHT22;51386;53.082;8.816;2023-04-01T03:10:36;13.10;90.80
64888;DHT22;51386;53.082;8.816;2023-04-01T03:13:03;13.20;90.80
64888;DHT22;51386;53.082;8.816;2023-04-01T03:15:30;13.10;90.70
64888;DHT22;51386;53.082;8.816;2023-04-01T03:17:57;13.10;90.80
64888;DHT22;51386;53.082;8.816;2023-04-01T03:20:24;13.10;90.80
64888;DHT22;51386;53.082;8.816;2023-04-01T03:22:51;13.10;90.80
64888;DHT22;51386;53.082;8.816;2023-04-01T03:25:18;13.10;90.70
64888;DHT22;51386;53.082;8.816;2023-04-01T03:27:47;13.10;90.80
64888;DHT22;51386;53.082;8.816;2023-04-01T03:30:14;13.10;90.80
64888;DHT22;51386;53.082;8.816;2023-04-01T03:32:41;13.00;90.70
64888;DHT22;51386;53.082;8.816;2023-04-01T03:35:08;13.00;91.20
64888;DHT22;51386;53.082;8.816;2023-04-01T03:37:37;13.00;90.90
64888;DHT22;51386;53.082;8.816;2023-04-01T03:40:05;13.00;90.90
64888;DHT22;51386;53.082;8.816;2023-04-01T03:42:32;12.90;90.80
64888;DHT22;51386;53.082;8.816;2023-04-01T03:45:01;12.90;90.90
64888;DHT22;51386;53.082;8.816;2023-04-01T03:47:29;12.90;90.90
64888;DHT22;51386;53.082;8.816;2023-04-01T03:49:56;12.80;90.90
64888;DHT22;51386;53.082;8.816;2023-04-01T03:52:23;12.80;91.00
64888;DHT22;51386;53.082;8.816;2023-04-01T03:54:50;12.80;91.00
64888;DHT22;51386;53.082;8.816;2023-04-01T03:57:17;12.80;91.00
64888;DHT22;51386;53.082;8.816;2023-04-01T03:59:44;12.80;91.00
64888;DHT22;51386;53.082;8.816;2023-04-01T04:02:12;12.80;91.10
64888;DHT22;51386;53.082;8.816;2023-04-01T04:04:39;12.80;91.10
64888;DHT22;51386;53.082;8.816;2023-04-01T04:07:06;12.80;91.10
64888;DHT22;51386;53.082;8.816;2023-04-01T04:09:33;12.70;91.10
64888;DHT22;51386;53.082;8.816;2023-04-01T04:12:00;12.80;91.10
64888;DHT22;51386;53.082;8.816;2023-04-01T04:14:27;12.80;91.10
64888;DHT22;51386;53.082;8.816;2023-04-01T04:16:54;12.80;91.10
64888;DHT22;51386;53.082;8.816;2023-04-01T04:19:22;12.80;91.10
64888;DHT22;51386;53.082;8.816;2023-04-01T04:21:49;12.80;91.10
64888;DHT22;51386;53.082;8.816;2023-04-01T04:24:16;12.70;91.00
64888;DHT22;51386;53.082;8.816;2023-04-01T04:26:43;12.70;91.00
64888;DHT22;51386;53.082;8.816;2023-04-01T04:29:10;12.70;91.00
64888;DHT22;51386;53.082;8.816;2023-04-01T04:31:37;12.70;91.00
64888;DHT22;51386;53.082;8.816;2023-04-01T04:34:04;12.70;91.00
64888;DHT22;51386;53.082;8.816;2023-04-01T04:36:32;12.70;91.00
64888;DHT22;51386;53.082;8.816;2023-04-01T04:38:59;12.70;91.10
64888;DHT22;51386;53.082;8.816;2023-04-01T04:41:28;12.70;91.10
64888;DHT22;51386;53.082;8.816;2023-04-01T04:43:56;12.70;91.20
64888;DHT22;51386;53.082;8.816;2023-04-01T04:46:25;12.70;91.30
64888;DHT22;51386;53.082;8.816;2023-04-01T04:48:52;12.70;91.30
64888;DHT22;51386;53.082;8.816;2023-04-01T04:51:20;12.60;91.30
64888;DHT22;51386;53.082;8.816;2023-04-01T04:53:49;12.60;91.30
64888;DHT22;51386;53.082;8.816;2023-04-01T04:56:19;12.60;91.40
64888;DHT22;51386;53.082;8.816;2023-04-01T04:58:47;12.60;91.40
64888;DHT22;51386;53.082;8.816;2023-04-01T05:01:16;12.60;91.40
64888;DHT22;51386;53.082;8.816;2023-04-01T05:03:44;12.60;91.40
64888;DHT22;51386;53.082;8.816;2023-04-01T05:06:16;12.60;91.40
64888;DHT22;51386;53.082;8.816;2023-04-01T05:08:44;12.60;91.70
64888;DHT22;51386;53.082;8.816;2023-04-01T05:11:15;12.70;91.40
64888;DHT22;51386;53.082;8.816;2023-04-01T05:13:44;12.70;91.40
64888;DHT22;51386;53.082;8.816;2023-04-01T05:16:14;12.70;91.40
64888;DHT22;51386;53.082;8.816;2023-04-01T05:18:42;12.70;91.40
64888;DHT22;51386;53.082;8.816;2023-04-01T05:21:11;12.70;91.30
64888;DHT22;51386;53.082;8.816;2023-04-01T05:23:39;12.70;91.20
64888;DHT22;51386;53.082;8.816;2023-04-01T05:26:08;12.80;91.60
64888;DHT22;51386;53.082;8.816;2023-04-01T05:28:38;12.80;91.20
64888;DHT22;51386;53.082;8.816;2023-04-01T05:31:06;12.80;91.00
64888;DHT22;51386;53.082;8.816;2023-04-01T05:33:34;12.80;90.90
64888;DHT22;51386;53.082;8.816;2023-04-01T05:36:09;12.80;90.90
64888;DHT22;51386;53.082;8.816;2023-04-01T05:38:38;12.80;91.00
64888;DHT22;51386;53.082;8.816;2023-04-01T05:41:05;12.90;90.90
64888;DHT22;51386;53.082;8.816;2023-04-01T05:43:35;12.80;90.90
64888;DHT22;51386;53.082;8.816;2023-04-01T05:46:03;12.90;91.00
64888;DHT22;51386;53.082;8.816;2023-04-01T05:48:31;12.90;91.00
64888;DHT22;51386;53.082;8.816;2023-04-01T05:50:59;12.90;90.90
64888;DHT22;51386;53.082;8.816;2023-04-01T05:53:26;12.90;90.90
64888;DHT22;51386;53.082;8.816;2023-04-01T05:55:52;13.00;90.90
64888;DHT22;51386;53.082;8.816;2023-04-01T05:58:19;13.00;90.90
64888;DHT22;51386;53.082;8.816;2023-04-01T06:00:46;13.00;90.90
64888;DHT22;51386;53.082;8.816;2023-04-01T06:03:15;13.00;90.80
64888;DHT22;51386;53.082;8.816;2023-04-01T06:05:43;13.00;90.70
64888;DHT22;51386;53.082;8.816;2023-04-01T06:08:12;13.10;90.80
64888;DHT22;51386;53.082;8.816;2023-04-01T06:10:55;13.10;90.70
64888;DHT22;51386;53.082;8.816;2023-04-01T06:13:39;13.10;90.70
64888;DHT22;51386;53.082;8.816;2023-04-01T06:16:26;13.10;90.60
64888;DHT22;51386;53.082;8.816;2023-04-01T06:19:18;13.20;90.50
64888;DHT22;51386;53.082;8.816;2023-04-01T06:25:41;13.10;90.50
64888;DHT22;51386;53.082;8.816;2023-04-01T06:31:40;13.10;90.50
64888;DHT22;51386;53.082;8.816;2023-04-01T06:34:42;13.10;90.60
64888;DHT22;51386;53.082;8.816;2023-04-01T06:37:39;13.10;90.50
64888;DHT22;51386;53.082;8.816;2023-04-01T06:43:33;13.20;90.20
64888;DHT22;51386;53.082;8.816;2023-04-01T06:46:10;13.10;90.20
64888;DHT22;51386;53.082;8.816;2023-04-01T06:48:53;13.20;90.30
64888;DHT22;51386;53.082;8.816;2023-04-01T06:51:39;13.20;90.40
64888;DHT22;51386;53.082;8.816;2023-04-01T06:54:17;13.20;90.40
64888;DHT22;51386;53.082;8.816;2023-04-01T06:56:52;13.20;90.30
64888;DHT22;51386;53.082;8.816;2023-04-01T06:59:26;13.20;90.40
64888;DHT22;51386;53.082;8.816;2023-04-01T07:01:59;13.30;90.40
64888;DHT22;51386;53.082;8.816;2023-04-01T07:04:32;13.30;90.40
64888;DHT22;51386;53.082;8.816;2023-04-01T07:07:08;13.30;90.50
64888;DHT22;51386;53.082;8.816;2023-04-01T07:09:56;13.30;90.50
64888;DHT22;51386;53.082;8.816;2023-04-01T07:12:34;13.40;90.50
64888;DHT22;51386;53.082;8.816;2023-04-01T07:15:16;13.40;90.40
64888;DHT22;51386;53.082;8.816;2023-04-01T07:17:50;13.40;90.50
64888;DHT22;51386;53.082;8.816;2023-04-01T07:20:25;13.40;90.50
64888;DHT22;51386;53.082;8.816;2023-04-01T07:22:58;13.50;90.40
64888;DHT22;51386;53.082;8.816;2023-04-01T07:25:30;13.50;90.30
64888;DHT22;51386;53.082;8.816;2023-04-01T07:28:02;13.50;90.30
64888;DHT22;51386;53.082;8.816;2023-04-01T07:30:42;13.50;90.20
64888;DHT22;51386;53.082;8.816;2023-04-01T07:33:18;13.50;90.20
64888;DHT22;51386;53.082;8.816;2023-04-01T07:35:52;13.50;90.20
64888;DHT22;51386;53.082;8.816;2023-04-01T07:38:33;13.50;90.20
64888;DHT22;51386;53.082;8.816;2023-04-01T07:41:19;13.50;90.20
64888;DHT22;51386;53.082;8.816;2023-04-01T07:43:59;13.60;90.20
64888;DHT22;51386;53.082;8.816;2023-04-01T07:46:57;13.60;90.10
64888;DHT22;51386;53.082;8.816;2023-04-01T07:49:38;13.60;90.10
64888;DHT22;51386;53.082;8.816;2023-04-01T07:52:19;13.50;90.50
64888;DHT22;51386;53.082;8.816;2023-04-01T07:55:02;13.50;90.20
64888;DHT22;51386;53.082;8.816;2023-04-01T07:57:38;13.50;90.30
64888;DHT22;51386;53.082;8.816;2023-04-01T08:00:16;13.50;90.30
64888;DHT22;51386;53.082;8.816;2023-04-01T08:03:15;13.60;90.40
64888;DHT22;51386;53.082;8.816;2023-04-01T08:05:54;13.60;90.50
64888;DHT22;51386;53.082;8.816;2023-04-01T08:08:32;13.60;90.40
64888;DHT22;51386;53.082;8.816;2023-04-01T08:11:22;13.70;90.50
64888;DHT22;51386;53.082;8.816;2023-04-01T08:14:04;13.70;90.70
64888;DHT22;51386;53.082;8.816;2023-04-01T08:16:42;13.70;90.20
64888;DHT22;51386;53.082;8.816;2023-04-01T08:19:28;13.80;90.30
64888;DHT22;51386;53.082;8.816;2023-04-01T08:22:11;13.80;90.40
64888;DHT22;51386;53.082;8.816;2023-04-01T08:24:45;13.80;90.30
64888;DHT22;51386;53.082;8.816;2023-04-01T08:27:21;13.80;90.30
64888;DHT22;51386;53.082;8.816;2023-04-01T08:29:58;13.90;90.40
64888;DHT22;51386;53.082;8.816;2023-04-01T08:32:34;13.90;90.30
64888;DHT22;51386;53.082;8.816;2023-04-01T08:35:09;14.00;90.20
64888;DHT22;51386;53.082;8.816;2023-04-01T08:37:45;14.00;90.20
64888;DHT22;51386;53.082;8.816;2023-04-01T08:40:43;14.00;90.40
64888;DHT22;51386;53.082;8.816;2023-04-01T08:50:21;14.20;89.90
64888;DHT22;51386;53.082;8.816;2023-04-01T08:53:03;14.30;89.30
64888;DHT22;51386;53.082;8.816;2023-04-01T08:55:51;14.30;88.80
64888;DHT22;51386;53.082;8.816;2023-04-01T08:58:47;14.30;89.10
64888;DHT22;51386;53.082;8.816;2023-04-01T09:07:57;14.50;89.50
64888;DHT22;51386;53.082;8.816;2023-04-01T09:10:50;14.50;89.20
64888;DHT22;51386;53.082;8.816;2023-04-01T09:13:51;14.50;89.00
64888;DHT22;51386;53.082;8.816;2023-04-01T09:19:57;14.50;88.70
64888;DHT22;51386;53.082;8.816;2023-04-01T09:22:45;14.60;88.90
64888;DHT22;51386;53.082;8.816;2023-04-01T09:25:38;14.60;88.90
64888;DHT22;51386;53.082;8.816;2023-04-01T09:28:18;14.60;89.20
64888;DHT22;51386;53.082;8.816;2023-04-01T09:34:31;14.90;90.00
64888;DHT22;51386;53.082;8.816;2023-04-01T09:37:21;15.10;89.10
64888;DHT22;51386;53.082;8.816;2023-04-01T09:40:17;15.30;87.40
64888;DHT22;51386;53.082;8.816;2023-04-01T09:43:06;15.50;87.10
64888;DHT22;51386;53.082;8.816;2023-04-01T09:46:10;15.60;86.60
64888;DHT22;51386;53.082;8.816;2023-04-01T09:52:10;16.00;85.60
64888;DHT22;51386;53.082;8.816;2023-04-01T09:55:18;16.10;85.10
64888;DHT22;51386;53.082;8.816;2023-04-01T10:01:39;16.20;83.80
64888;DHT22;51386;53.082;8.816;2023-04-01T10:11:22;16.30;81.30
64888;DHT22;51386;53.082;8.816;2023-04-01T10:14:36;16.10;81.40
64888;DHT22;51386;53.082;8.816;2023-04-01T10:17:49;15.90;81.30
64888;DHT22;51386;53.082;8.816;2023-04-01T10:23:54;15.50;80.70
64888;DHT22;51386;53.082;8.816;2023-04-01T10:27:04;15.20;80.40
64888;DHT22;51386;53.082;8.816;2023-04-01T10:33:22;14.50;81.70
64888;DHT22;51386;53.082;8.816;2023-04-01T10:36:34;14.20;83.20
64888;DHT22;51386;53.082;8.816;2023-04-01T10:39:57;13.90;83.30
64888;DHT22;51386;53.082;8.816;2023-04-01T10:46:26;13.50;85.30
64888;DHT22;51386;53.082;8.816;2023-04-01T10:50:04;13.30;85.50
64888;DHT22;51386;53.082;8.816;2023-04-01T10:53:02;13.20;85.40
64888;DHT22;51386;53.082;8.816;2023-04-01T10:56:00;13.10;85.60
64888;DHT22;51386;53.082;8.816;2023-04-01T10:59:13;13.00;85.60
64888;DHT22;51386;53.082;8.816;2023-04-01T11:02:31;12.90;86.60
64888;DHT22;51386;53.082;8.816;2023-04-01T11:05:53;12.80;86.70
64888;DHT22;51386;53.082;8.816;2023-04-01T11:09:07;12.90;87.10
64888;DHT22;51386;53.082;8.816;2023-04-01T11:12:15;12.90;86.60
64888;DHT22;51386;53.082;8.816;2023-04-01T11:15:31;13.00;86.80
64888;DHT22;51386;53.082;8.816;2023-04-01T11:18:39;13.00;86.40
64888;DHT22;51386;53.082;8.816;2023-04-01T11:21:55;13.10;86.20
64888;DHT22;51386;53.082;8.816;2023-04-01T11:24:58;13.00;85.40
64888;DHT22;51386;53.082;8.816;2023-04-01T11:27:56;12.90;84.90
64888;DHT22;51386;53.082;8.816;2023-04-01T11:30:56;12.80;84.90
64888;DHT22;51386;53.082;8.816;2023-04-01T11:33:36;12.70;85.60
64888;DHT22;51386;53.082;8.816;2023-04-01T11:36:20;12.60;85.10
64888;DHT22;51386;53.082;8.816;2023-04-01T11:39:11;12.50;85.60
64888;DHT22;51386;53.082;8.816;2023-04-01T11:41:52;12.50;86.00
64888;DHT22;51386;53.082;8.816;2023-04-01T11:44:29;12.40;86.30
64888;DHT22;51386;53.082;8.816;2023-04-01T11:47:18;12.40;86.20
64888;DHT22;51386;53.082;8.816;2023-04-01T11:50:01;12.30;85.70
64888;DHT22;51386;53.082;8.816;2023-04-01T11:53:00;12.30;86.00
64888;DHT22;51386;53.082;8.816;2023-04-01T11:55:56;12.20;86.90
64888;DHT22;51386;53.082;8.816;2023-04-01T11:58:43;12.20;86.90
64888;DHT22;51386;53.082;8.816;2023-04-01T12:01:31;12.30;86.90
64888;DHT22;51386;53.082;8.816;2023-04-01T12:04:33;12.30;86.60
64888;DHT22;51386;53.082;8.816;2023-04-01T12:07:15;12.30;86.90
64888;DHT22;51386;53.082;8.816;2023-04-01T12:09:54;12.30;86.50
64888;DHT22;51386;53.082;8.816;2023-04-01T12:12:38;12.30;86.50
64888;DHT22;51386;53.082;8.816;2023-04-01T12:15:36;12.40;86.30
64888;DHT22;51386;53.082;8.816;2023-04-01T12:18:25;12.40;86.60
64888;DHT22;51386;53.082;8.816;2023-04-01T12:21:09;12.40;85.90
64888;DHT22;51386;53.082;8.816;2023-04-01T12:24:22;12.50;85.30
64888;DHT22;51386;53.082;8.816;2023-04-01T12:27:23;12.50;84.50
64888;DHT22;51386;53.082;8.816;2023-04-01T12:30:40;12.50;85.10
64888;DHT22;51386;53.082;8.816;2023-04-01T12:33:28;12.40;85.20
64888;DHT22;51386;53.082;8.816;2023-04-01T12:36:14;12.40;85.40
64888;DHT22;51386;53.082;8.816;2023-04-01T12:39:16;12.40;85.30
64888;DHT22;51386;53.082;8.816;2023-04-01T12:41:54;12.30;84.90
64888;DHT22;51386;53.082;8.816;2023-04-01T12:44:45;12.40;84.20
64888;DHT22;51386;53.082;8.816;2023-04-01T12:47:36;12.30;84.90
64888;DHT22;51386;53.082;8.816;2023-04-01T12:50:32;12.30;84.90
64888;DHT22;51386;53.082;8.816;2023-04-01T12:53:28;12.30;85.00
64888;DHT22;51386;53.082;8.816;2023-04-01T12:56:14;12.30;84.90
64888;DHT22;51386;53.082;8.816;2023-04-01T12:59:17;12.30;84.50
64888;DHT22;51386;53.082;8.816;2023-04-01T13:02:01;12.30;84.50
64888;DHT22;51386;53.082;8.816;2023-04-01T13:08:08;12.30;84.40
64888;DHT22;51386;53.082;8.816;2023-04-01T13:11:02;12.30;84.50
64888;DHT22;51386;53.082;8.816;2023-04-01T13:17:07;12.30;84.30
64888;DHT22;51386;53.082;8.816;2023-04-01T13:19:48;12.20;83.70
64888;DHT22;51386;53.082;8.816;2023-04-01T13:22:41;12.20;84.00
64888;DHT22;51386;53.082;8.816;2023-04-01T13:25:24;12.10;83.60
64888;DHT22;51386;53.082;8.816;2023-04-01T13:28:06;12.10;83.70
64888;DHT22;51386;53.082;8.816;2023-04-01T13:30:48;12.10;83.90
64888;DHT22;51386;53.082;8.816;2023-04-01T13:33:27;12.10;83.40
64888;DHT22;51386;53.082;8.816;2023-04-01T13:36:11;12.10;83.70
64888;DHT22;51386;53.082;8.816;2023-04-01T13:42:12;12.10;84.10
64888;DHT22;51386;53.082;8.816;2023-04-01T13:44:48;12.10;83.70
64888;DHT22;51386;53.082;8.816;2023-04-01T13:50:37;12.10;84.20
64888;DHT22;51386;53.082;8.816;2023-04-01T13:56:50;11.90;84.70
64888;DHT22;51386;53.082;8.816;2023-04-01T13:59:41;11.80;85.10
64888;DHT22;51386;53.082;8.816;2023-04-01T14:02:45;11.70;85.10
64888;DHT22;51386;53.082;8.816;2023-04-01T14:05:47;11.70;85.40
64888;DHT22;51386;53.082;8.816;2023-04-01T14:08:32;11.60;85.60
64888;DHT22;51386;53.082;8.816;2023-04-01T14:11:17;11.50;85.80
64888;DHT22;51386;53.082;8.816;2023-04-01T14:14:01;11.50;86.50
64888;DHT22;51386;53.082;8.816;2023-04-01T14:16:59;11.40;86.10
64888;DHT22;51386;53.082;8.816;2023-04-01T14:20:04;11.40;86.50
64888;DHT22;51386;53.082;8.816;2023-04-01T14:23:02;11.40;86.80
64888;DHT22;51386;53.082;8.816;2023-04-01T14:26:07;11.30;86.40
64888;DHT22;51386;53.082;8.816;2023-04-01T14:28:47;11.30;86.20
64888;DHT22;51386;53.082;8.816;2023-04-01T14:31:30;11.20;85.90
64888;DHT22;51386;53.082;8.816;2023-04-01T14:34:15;11.20;85.50
64888;DHT22;51386;53.082;8.816;2023-04-01T14:40:24;11.10;86.50
64888;DHT22;51386;53.082;8.816;2023-04-01T14:46:13;11.10;86.90
64888;DHT22;51386;53.082;8.816;2023-04-01T14:48:51;11.10;86.90
64888;DHT22;51386;53.082;8.816;2023-04-01T14:51:29;11.10;86.30
64888;DHT22;51386;53.082;8.816;2023-04-01T14:54:14;11.10;86.20
64888;DHT22;51386;53.082;8.816;2023-04-01T14:56:51;11.10;85.60
64888;DHT22;51386;53.082;8.816;2023-04-01T14:59:33;11.00;85.50
64888;DHT22;51386;53.082;8.816;2023-04-01T15:02:14;11.00;86.10
64888;DHT22;51386;53.082;8.816;2023-04-01T15:04:58;10.90;85.50
64888;DHT22;51386;53.082;8.816;2023-04-01T15:07:56;10.90;85.10
64888;DHT22;51386;53.082;8.816;2023-04-01T15:17:02;10.80;85.40
64888;DHT22;51386;53.082;8.816;2023-04-01T15:19:57;10.80;85.50
64888;DHT22;51386;53.082;8.816;2023-04-01T15:22:49;10.80;86.00
64888;DHT22;51386;53.082;8.816;2023-04-01T15:25:36;10.80;85.50
64888;DHT22;51386;53.082;8.816;2023-04-01T15:28:20;10.80;85.30
64888;DHT22;51386;53.082;8.816;2023-04-01T15:30:57;10.80;85.00
64888;DHT22;51386;53.082;8.816;2023-04-01T15:33:42;10.80;84.90
64888;DHT22;51386;53.082;8.816;2023-04-01T15:36:27;10.70;84.40
64888;DHT22;51386;53.082;8.816;2023-04-01T15:39:09;10.70;84.60
64888;DHT22;51386;53.082;8.816;2023-04-01T15:41:51;10.60;83.70
64888;DHT22;51386;53.082;8.816;2023-04-01T15:44:42;10.60;84.10
64888;DHT22;51386;53.082;8.816;2023-04-01T15:47:31;10.50;83.70
64888;DHT22;51386;53.082;8.816;2023-04-01T15:50:33;10.50;83.90
64888;DHT22;51386;53.082;8.816;2023-04-01T15:53:24;10.50;84.00
64888;DHT22;51386;53.082;8.816;2023-04-01T15:56:19;10.50;83.90
64888;DHT22;51386;53.082;8.816;2023-04-01T15:59:03;10.40;83.30
64888;DHT22;51386;53.082;8.816;2023-04-01T16:01:44;10.40;83.80
64888;DHT22;51386;53.082;8.816;2023-04-01T16:04:40;10.40;84.20
64888;DHT22;51386;53.082;8.816;2023-04-01T16:10:35;10.30;83.90
64888;DHT22;51386;53.082;8.816;2023-04-01T16:13:23;10.30;83.70
64888;DHT22;51386;53.082;8.816;2023-04-01T16:16:02;10.20;83.50
64888;DHT22;51386;53.082;8.816;2023-04-01T16:18:51;10.10;83.50
64888;DHT22;51386;53.082;8.816;2023-04-01T16:21:38;10.10;84.00
64888;DHT22;51386;53.082;8.816;2023-04-01T16:24:22;10.10;83.50
64888;DHT22;51386;53.082;8.816;2023-04-01T16:27:02;10.00;83.60
64888;DHT22;51386;53.082;8.816;2023-04-01T16:29:42;10.00;83.40
64888;DHT22;51386;53.082;8.816;2023-04-01T16:32:33;10.00;84.00
64888;DHT22;51386;53.082;8.816;2023-04-01T16:35:23;9.90;85.30
64888;DHT22;51386;53.082;8.816;2023-04-01T16:38:07;9.90;85.30
64888;DHT22;51386;53.082;8.816;2023-04-01T16:40:49;9.90;85.20
64888;DHT22;51386;53.082;8.816;2023-04-01T16:43:28;9.90;85.00
64888;DHT22;51386;53.082;8.816;2023-04-01T16:46:21;9.90;85.00
64888;DHT22;51386;53.082;8.816;2023-04-01T16:49:00;9.80;84.50
64888;DHT22;51386;53.082;8.816;2023-04-01T16:51:36;9.70;84.20
64888;DHT22;51386;53.082;8.816;2023-04-01T16:54:16;9.70;84.50
64888;DHT22;51386;53.082;8.816;2023-04-01T16:57:02;9.70;84.40
64888;DHT22;51386;53.082;8.816;2023-04-01T16:59:47;9.70;84.10
64888;DHT22;51386;53.082;8.816;2023-04-01T17:02:25;9.60;84.20
64888;DHT22;51386;53.082;8.816;2023-04-01T17:05:00;9.60;84.10
64888;DHT22;51386;53.082;8.816;2023-04-01T17:07:40;9.60;84.60
64888;DHT22;51386;53.082;8.816;2023-04-01T17:10:32;9.60;84.60
64888;DHT22;51386;53.082;8.816;2023-04-01T17:13:37;9.60;84.60
64888;DHT22;51386;53.082;8.816;2023-04-01T17:16:24;9.60;84.00
64888;DHT22;51386;53.082;8.816;2023-04-01T17:19:17;9.60;83.70
64888;DHT22;51386;53.082;8.816;2023-04-01T17:22:01;9.60;83.70
64888;DHT22;51386;53.082;8.816;2023-04-01T17:24:56;9.60;83.20
64888;DHT22;51386;53.082;8.816;2023-04-01T17:27:40;9.50;82.80
64888;DHT22;51386;53.082;8.816;2023-04-01T17:30:26;9.40;82.80
64888;DHT22;51386;53.082;8.816;2023-04-01T17:33:28;9.40;83.10
64888;DHT22;51386;53.082;8.816;2023-04-01T17:36:09;9.40;83.90
64888;DHT22;51386;53.082;8.816;2023-04-01T17:39:15;9.40;84.00
64888;DHT22;51386;53.082;8.816;2023-04-01T17:41:53;9.50;83.80
64888;DHT22;51386;53.082;8.816;2023-04-01T17:44:34;9.40;82.80
64888;DHT22;51386;53.082;8.816;2023-04-01T17:47:25;9.50;82.50
64888;DHT22;51386;53.082;8.816;2023-04-01T17:50:14;9.40;82.20
64888;DHT22;51386;53.082;8.816;2023-04-01T17:53:07;9.40;82.40
64888;DHT22;51386;53.082;8.816;2023-04-01T17:55:51;9.40;82.90
64888;DHT22;51386;53.082;8.816;2023-04-01T17:58:29;9.40;83.10
64888;DHT22;51386;53.082;8.816;2023-04-01T18:01:17;9.40;83.10
64888;DHT22;51386;53.082;8.816;2023-04-01T18:04:18;9.40;83.30
64888;DHT22;51386;53.082;8.816;2023-04-01T18:07:15;9.40;83.40
64888;DHT22;51386;53.082;8.816;2023-04-01T18:10:03;9.50;82.70
64888;DHT22;51386;53.082;8.816;2023-04-01T18:13:14;9.40;81.30
64888;DHT22;51386;53.082;8.816;2023-04-01T18:15:59;9.40;81.70
64888;DHT22;51386;53.082;8.816;2023-04-01T18:18:46;9.30;81.60
64888;DHT22;51386;53.082;8.816;2023-04-01T18:21:29;9.30;81.20
64888;DHT22;51386;53.082;8.816;2023-04-01T18:24:10;9.10;80.60
64888;DHT22;51386;53.082;8.816;2023-04-01T18:26:47;9.10;80.70
64888;DHT22;51386;53.082;8.816;2023-04-01T18:29:34;9.00;80.70